createdAt,value
2018-06-15T00:00:25.617Z,99.49
2018-06-15T00:03:00.438Z,99.16
2018-06-15T00:05:30.211Z,99.44
2018-06-15T00:08:00.029Z,99.01
2018-06-15T00:10:30.242Z,98.51
2018-06-15T00:12:59.933Z,98.80
2018-06-15T00:15:29.642Z,98.03
2018-06-15T00:17:59.328Z,99.17
2018-06-15T00:20:29.126Z,98.16
2018-06-15T00:22:58.822Z,98.32
2018-06-15T00:25:28.548Z,98.29
2018-06-15T00:27:58.208Z,98.77
2018-06-15T00:30:27.859Z,98.60
2018-06-15T00:32:57.487Z,98.75
2018-06-15T00:35:27.140Z,98.85
2018-06-15T00:37:56.784Z,98.21
2018-06-15T00:40:26.451Z,98.05
2018-06-15T00:42:56.101Z,98.90
2018-06-15T00:45:25.933Z,99.19
2018-06-15T00:47:55.646Z,98.86
2018-06-15T00:50:25.301Z,98.07
2018-06-15T00:52:55.218Z,98.32
2018-06-15T00:55:24.857Z,97.01
2018-06-15T00:57:54.586Z,97.84
2018-06-15T01:00:24.214Z,97.08
2018-06-15T01:02:53.889Z,96.93
2018-06-15T01:05:23.556Z,96.36
2018-06-15T01:07:53.301Z,96.97
2018-06-15T01:10:23.092Z,97.18
2018-06-15T01:12:52.768Z,97.10
2018-06-15T01:15:22.469Z,97.12
2018-06-15T01:17:51.846Z,97.22
2018-06-15T01:20:21.483Z,97.90
2018-06-15T01:22:51.104Z,98.40
2018-06-15T01:25:20.713Z,98.30
2018-06-15T01:27:50.006Z,98.35
2018-06-15T01:30:19.300Z,97.74
2018-06-15T01:32:48.893Z,98.55
2018-06-15T01:35:18.528Z,98.42
2018-06-15T01:37:48.216Z,99.29
2018-06-15T01:40:18.017Z,99.26
2018-06-15T01:42:47.629Z,99.03
2018-06-15T01:45:17.377Z,98.78
2018-06-15T01:47:47.158Z,97.93
2018-06-15T01:50:16.878Z,98.25
2018-06-15T01:52:46.533Z,98.60
2018-06-15T01:55:15.904Z,98.61
2018-06-15T01:57:45.704Z,98.80
2018-06-15T02:00:15.340Z,98.58
2018-06-15T02:02:45.153Z,97.16
2018-06-15T02:05:14.869Z,95.89
2018-06-15T02:07:44.535Z,96.15
2018-06-15T02:10:14.195Z,95.81
2018-06-15T02:12:43.842Z,96.19
2018-06-15T02:15:13.590Z,96.45
2018-06-15T02:17:43.257Z,96.54
2018-06-15T02:20:12.620Z,95.98
2018-06-15T02:22:42.344Z,96.64
2018-06-15T02:25:12.057Z,96.64
2018-06-15T02:27:41.917Z,96.38
2018-06-15T02:30:11.564Z,96.14
2018-06-15T02:32:41.230Z,97.00
2018-06-15T02:35:10.596Z,97.38
2018-06-15T02:37:40.260Z,96.35
2018-06-15T02:40:10.046Z,95.99
2018-06-15T02:42:39.702Z,96.60
2018-06-15T02:45:09.361Z,96.04
2018-06-15T02:47:39.125Z,95.64
2018-06-15T02:50:08.825Z,96.47
2018-06-15T02:52:38.215Z,95.23
2018-06-15T02:55:07.892Z,95.19
2018-06-15T02:57:37.940Z,93.81
2018-06-15T03:00:07.679Z,93.89
2018-06-15T03:02:37.305Z,93.65
2018-06-15T03:05:07.037Z,94.17
2018-06-15T03:07:36.698Z,94.53
2018-06-15T03:10:06.405Z,94.45
2018-06-15T03:12:36.043Z,94.79
2018-06-15T03:15:05.844Z,95.49
2018-06-15T03:17:35.238Z,95.10
2018-06-15T03:20:05.273Z,96.17
2018-06-15T03:22:34.697Z,95.89
2018-06-15T03:25:04.491Z,95.24
2018-06-15T03:27:34.121Z,96.13
2018-06-15T03:30:03.950Z,95.94
2018-06-15T03:32:33.698Z,95.95
2018-06-15T03:35:03.338Z,96.30
2018-06-15T03:37:33.175Z,96.79
2018-06-15T03:40:02.542Z,96.54
2018-06-15T03:42:32.203Z,96.68
2018-06-15T03:45:01.898Z,96.52
2018-06-15T03:47:31.733Z,95.94
2018-06-15T03:50:01.385Z,97.86
2018-06-15T03:52:31.218Z,97.66
2018-06-15T03:55:00.893Z,97.65
2018-06-15T03:57:30.638Z,97.85
2018-06-15T04:00:00.286Z,98.00
2018-06-15T04:02:30.037Z,98.47
2018-06-15T04:04:59.676Z,98.62
2018-06-15T04:07:29.460Z,97.33
2018-06-15T04:09:59.077Z,96.85
2018-06-15T04:12:28.833Z,96.68
2018-06-15T04:14:58.610Z,96.75
2018-06-15T04:17:28.370Z,96.25
2018-06-15T04:19:57.692Z,96.04
2018-06-15T04:22:27.523Z,96.51
2018-06-15T04:24:57.237Z,95.71
2018-06-15T04:27:26.932Z,95.85
2018-06-15T04:29:56.576Z,95.64
2018-06-15T04:32:26.296Z,94.69
2018-06-15T04:34:55.961Z,93.93
2018-06-15T04:37:25.311Z,94.00
2018-06-15T04:39:54.894Z,94.11
2018-06-15T04:42:24.597Z,93.80
2018-06-15T04:44:54.257Z,93.46
2018-06-15T04:47:23.896Z,93.34
2018-06-15T04:49:53.560Z,93.61
2018-06-15T04:52:23.181Z,93.72
2018-06-15T04:54:52.940Z,93.19
2018-06-15T04:57:22.801Z,92.24
2018-06-15T04:59:52.506Z,93.13
2018-06-15T05:02:22.265Z,93.19
2018-06-15T05:04:51.942Z,92.49
2018-06-15T05:07:21.691Z,92.48
2018-06-15T05:09:51.435Z,92.19
2018-06-15T05:12:21.120Z,92.88
2018-06-15T05:14:50.756Z,93.08
2018-06-15T05:17:20.210Z,94.39
2018-06-15T05:19:49.858Z,91.53
2018-06-15T05:22:19.757Z,92.49
2018-06-15T05:24:49.458Z,92.54
2018-06-15T05:27:19.318Z,92.81
2018-06-15T05:29:48.964Z,91.16
2018-06-15T05:32:18.685Z,92.02
2018-06-15T05:34:48.515Z,89.80
2018-06-15T05:37:17.781Z,90.17
2018-06-15T05:39:47.449Z,89.78
2018-06-15T05:42:17.066Z,90.04
2018-06-15T05:44:46.845Z,89.10
2018-06-15T05:47:16.578Z,88.30
2018-06-15T05:49:46.291Z,87.99
2018-06-15T05:52:15.820Z,89.66
2018-06-15T05:54:45.380Z,88.61
2018-06-15T05:57:15.087Z,87.65
2018-06-15T05:59:45.042Z,88.31
2018-06-15T06:02:14.807Z,87.83
2018-06-15T06:04:44.427Z,86.26
2018-06-15T06:07:14.093Z,85.63
2018-06-15T06:09:43.768Z,85.45
2018-06-15T06:12:13.391Z,85.33
2018-06-15T06:14:43.025Z,84.98
2018-06-15T06:17:12.631Z,85.25
2018-06-15T06:19:42.339Z,86.94
2018-06-15T06:22:11.989Z,85.16
2018-06-15T06:24:41.631Z,85.96
2018-06-15T06:27:11.404Z,87.62
2018-06-15T06:29:40.713Z,85.96
2018-06-15T06:32:10.351Z,84.14
2018-06-15T06:34:40.003Z,82.06
2018-06-15T06:37:09.650Z,79.18
2018-06-15T06:39:39.293Z,80.88
2018-06-15T06:42:08.985Z,79.65
2018-06-15T06:44:38.300Z,78.59
2018-06-15T06:47:07.772Z,78.62
2018-06-15T06:49:37.420Z,76.89
2018-06-15T06:52:07.111Z,75.31
2018-06-15T06:54:36.786Z,73.98
2018-06-15T06:57:06.509Z,73.08
2018-06-15T06:59:36.106Z,74.06
2018-06-15T07:02:05.789Z,74.35
2018-06-15T07:04:35.445Z,77.05
2018-06-15T07:07:05.210Z,76.77
2018-06-15T07:09:34.513Z,75.23
2018-06-15T07:12:03.844Z,75.98
2018-06-15T07:14:33.585Z,76.69
2018-06-15T07:17:03.236Z,75.57
2018-06-15T07:19:32.965Z,71.02
2018-06-15T07:22:02.655Z,71.53
2018-06-15T07:24:32.023Z,69.50
2018-06-15T07:27:01.701Z,70.09
2018-06-15T07:29:31.369Z,71.01
2018-06-15T07:32:01.044Z,69.13
2018-06-15T07:34:31.062Z,70.92
2018-06-15T07:37:00.701Z,68.97
2018-06-15T07:39:30.329Z,69.39
2018-06-15T07:42:00.093Z,64.98
2018-06-15T07:44:29.764Z,66.92
2018-06-15T07:46:59.417Z,67.21
2018-06-15T07:49:29.068Z,66.68
2018-06-15T07:51:58.776Z,65.31
2018-06-15T07:54:28.418Z,61.55
2018-06-15T07:56:58.096Z,57.92
2018-06-15T07:59:28.061Z,58.48
2018-06-15T08:01:57.624Z,53.30
2018-06-15T08:04:27.289Z,54.90
2018-06-15T08:06:56.925Z,56.87
2018-06-15T08:09:26.578Z,55.20
2018-06-15T08:11:56.229Z,54.77
2018-06-15T08:14:25.917Z,58.28
2018-06-15T08:16:55.617Z,61.12
2018-06-15T08:19:25.314Z,61.22
2018-06-15T08:21:54.764Z,63.23
2018-06-15T08:24:24.450Z,63.23
2018-06-15T08:26:54.132Z,64.61
2018-06-15T08:29:23.798Z,62.73
2018-06-15T08:31:53.089Z,60.15
2018-06-15T08:34:22.816Z,57.94
2018-06-15T08:36:52.499Z,55.01
2018-06-15T08:39:22.180Z,50.82
2018-06-15T08:41:51.841Z,47.83
2018-06-15T08:44:21.460Z,45.98
2018-06-15T08:46:51.158Z,46.52
2018-06-15T08:49:20.836Z,44.63
2018-06-15T08:51:50.507Z,47.16
2018-06-15T08:54:19.809Z,43.42
2018-06-15T08:56:49.121Z,43.23
2018-06-15T08:59:18.501Z,43.66
2018-06-15T09:01:48.282Z,43.30
2018-06-15T09:04:17.901Z,48.04
2018-06-15T09:06:47.664Z,53.43
2018-06-15T09:09:17.032Z,55.32
2018-06-15T09:11:46.682Z,55.85
2018-06-15T09:14:16.020Z,57.05
2018-06-15T09:16:45.641Z,56.88
2018-06-15T09:19:15.317Z,58.75
2018-06-15T09:21:45.100Z,58.63
2018-06-15T09:24:15.023Z,60.87
2018-06-15T09:26:44.676Z,59.74
2018-06-15T09:29:14.421Z,60.11
2018-06-15T09:31:44.085Z,58.40
2018-06-15T09:34:13.730Z,55.22
2018-06-15T09:36:43.475Z,53.81
2018-06-15T09:39:13.118Z,52.70
2018-06-15T09:41:42.514Z,50.52
2018-06-15T09:44:12.148Z,45.28
2018-06-15T09:46:41.814Z,38.80
2018-06-15T09:49:11.462Z,40.19
2018-06-15T09:51:40.754Z,40.02
2018-06-15T09:54:11.398Z,41.75
2018-06-15T09:56:40.808Z,39.03
2018-06-15T09:59:10.509Z,36.97
2018-06-15T10:01:40.278Z,35.76
2018-06-15T10:04:09.921Z,40.20
2018-06-15T10:06:39.606Z,37.18
2018-06-15T10:09:09.269Z,36.09
2018-06-15T10:11:38.608Z,36.02
2018-06-15T10:14:08.264Z,38.45
2018-06-15T10:16:37.976Z,37.00
2018-06-15T10:19:07.878Z,38.45
2018-06-15T10:21:37.569Z,34.64
2018-06-15T10:24:07.398Z,34.26
2018-06-15T10:26:37.054Z,37.09
2018-06-15T10:29:06.369Z,36.51
2018-06-15T10:31:36.037Z,35.47
2018-06-15T10:34:06.057Z,35.83
2018-06-15T10:36:35.981Z,37.83
2018-06-15T10:39:07.852Z,37.69
2018-06-15T10:41:37.680Z,38.73
2018-06-15T10:44:07.420Z,39.33
2018-06-15T10:46:37.100Z,40.25
2018-06-15T10:49:06.795Z,39.66
2018-06-15T10:51:36.455Z,34.41
2018-06-15T10:54:06.129Z,36.64
2018-06-15T10:56:36.723Z,38.93
2018-06-15T10:59:06.370Z,37.27
2018-06-15T11:01:36.339Z,37.18
2018-06-15T11:04:06.031Z,38.07
2018-06-15T11:06:35.441Z,36.77
2018-06-15T11:09:07.384Z,38.65
2018-06-15T11:11:37.507Z,36.30
2018-06-15T11:14:06.781Z,34.45
2018-06-15T11:16:36.527Z,36.33
2018-06-15T11:19:06.339Z,33.07
2018-06-15T11:21:36.087Z,34.73
2018-06-15T11:24:05.441Z,39.34
2018-06-15T11:26:35.078Z,37.29
2018-06-15T11:29:04.979Z,41.16
2018-06-15T11:31:34.649Z,43.85
2018-06-15T11:34:04.354Z,42.09
2018-06-15T11:36:33.787Z,42.14
2018-06-15T11:39:03.654Z,43.40
2018-06-15T11:41:33.330Z,45.95
2018-06-15T11:44:03.082Z,46.42
2018-06-15T11:46:32.767Z,46.56
2018-06-15T11:49:02.472Z,48.84
2018-06-15T11:51:32.294Z,47.90
2018-06-15T11:54:01.974Z,45.07
2018-06-15T11:56:31.751Z,41.36
2018-06-15T11:59:01.455Z,38.01
2018-06-15T12:01:31.121Z,42.15
2018-06-15T12:04:00.835Z,41.50
2018-06-15T12:06:30.526Z,42.94
2018-06-15T12:09:00.158Z,43.51
2018-06-15T12:11:30.208Z,45.53
2018-06-15T12:13:59.842Z,46.35
2018-06-15T12:16:29.496Z,47.54
2018-06-15T12:18:59.381Z,47.48
2018-06-15T12:21:28.921Z,47.37
2018-06-15T12:23:58.605Z,49.22
2018-06-15T12:26:28.032Z,47.81
2018-06-15T12:28:57.709Z,49.76
2018-06-15T12:31:27.554Z,51.01
2018-06-15T12:33:57.257Z,48.49
2018-06-15T12:36:26.943Z,47.85
2018-06-15T12:38:56.622Z,47.75
2018-06-15T12:41:26.307Z,47.99
2018-06-15T12:43:56.193Z,46.12
2018-06-15T12:46:26.053Z,51.51
2018-06-15T12:48:55.760Z,48.67
2018-06-15T12:51:25.417Z,48.71
2018-06-15T12:53:55.143Z,48.92
2018-06-15T12:56:24.982Z,48.70
2018-06-15T12:58:54.709Z,51.39
2018-06-15T13:01:24.445Z,51.03
2018-06-15T13:03:54.049Z,51.68
2018-06-15T13:06:23.735Z,53.95
2018-06-15T13:08:53.430Z,52.36
2018-06-15T13:11:23.151Z,52.92
2018-06-15T13:13:52.835Z,49.52
2018-06-15T13:16:22.182Z,50.76
2018-06-15T13:18:51.541Z,50.73
2018-06-15T13:21:21.209Z,50.68
2018-06-15T13:23:50.611Z,51.48
2018-06-15T13:26:20.240Z,50.26
2018-06-15T13:28:49.933Z,49.71
2018-06-15T13:31:19.596Z,50.22
2018-06-15T13:33:49.323Z,48.81
2018-06-15T13:36:19.034Z,49.20
2018-06-15T13:38:48.729Z,48.83
2018-06-15T13:41:18.402Z,51.13
2018-06-15T13:43:48.093Z,50.53
2018-06-15T13:46:17.762Z,48.80
2018-06-15T13:48:47.458Z,43.10
2018-06-15T13:51:17.170Z,44.23
2018-06-15T13:53:46.860Z,45.88
2018-06-15T13:56:16.685Z,44.32
2018-06-15T13:58:46.051Z,47.19
2018-06-15T14:01:15.841Z,47.38
2018-06-15T14:03:45.570Z,43.75
2018-06-15T14:06:15.266Z,39.05
2018-06-15T14:08:45.148Z,36.91
2018-06-15T14:11:14.478Z,35.25
2018-06-15T14:13:44.091Z,36.50
2018-06-15T14:16:13.737Z,36.23
2018-06-15T14:18:43.490Z,40.11
2018-06-15T14:21:13.205Z,41.39
2018-06-15T14:23:42.541Z,42.46
2018-06-15T14:26:12.305Z,45.46
2018-06-15T14:28:41.957Z,42.76
2018-06-15T14:31:11.632Z,45.66
2018-06-15T14:33:41.629Z,43.96
2018-06-15T14:36:11.318Z,44.48
2018-06-15T14:38:41.029Z,43.34
2018-06-15T14:41:10.833Z,37.34
2018-06-15T14:43:40.554Z,37.81
2018-06-15T14:46:10.246Z,38.57
2018-06-15T14:48:39.897Z,40.76
2018-06-15T14:51:09.609Z,41.27
2018-06-15T14:53:39.291Z,41.16
2018-06-15T14:56:08.981Z,42.25
2018-06-15T14:58:38.386Z,43.00
2018-06-15T15:01:07.733Z,42.43
2018-06-15T15:03:37.422Z,44.11
2018-06-15T15:06:07.093Z,40.43
2018-06-15T15:08:36.747Z,38.84
2018-06-15T15:11:07.295Z,39.95
2018-06-15T15:13:36.979Z,36.32
2018-06-15T15:16:06.379Z,36.95
2018-06-15T15:18:36.005Z,39.57
2018-06-15T15:21:05.665Z,40.33
2018-06-15T15:23:35.386Z,38.05
2018-06-15T15:26:05.134Z,37.29
2018-06-15T15:28:34.421Z,37.07
2018-06-15T15:31:04.217Z,39.28
2018-06-15T15:33:34.104Z,41.58
2018-06-15T15:36:04.017Z,42.21
2018-06-15T15:38:33.759Z,43.57
2018-06-15T15:41:03.413Z,43.69
2018-06-15T15:43:32.723Z,44.08
2018-06-15T15:46:02.260Z,41.74
2018-06-15T15:48:31.990Z,38.94
2018-06-15T15:51:01.345Z,38.75
2018-06-15T15:53:30.776Z,38.92
2018-06-15T15:56:00.601Z,37.85
2018-06-15T15:58:30.282Z,40.41
2018-06-15T16:00:59.946Z,38.71
2018-06-15T16:03:29.609Z,39.63
2018-06-15T16:05:58.924Z,40.45
2018-06-15T16:08:28.241Z,41.19
2018-06-15T16:10:57.900Z,39.52
2018-06-15T16:13:27.575Z,39.37
2018-06-15T16:15:57.309Z,41.92
2018-06-15T16:18:27.073Z,41.57
2018-06-15T16:20:57.217Z,40.50
2018-06-15T16:23:26.936Z,43.10
2018-06-15T16:25:56.645Z,41.93
2018-06-15T16:28:26.308Z,43.60
2018-06-15T16:30:57.010Z,44.37
2018-06-15T16:33:26.733Z,43.63
2018-06-15T16:35:56.454Z,46.18
2018-06-15T16:38:26.184Z,46.38
2018-06-15T16:40:55.832Z,46.92
2018-06-15T16:43:25.618Z,48.26
2018-06-15T16:45:54.948Z,44.05
2018-06-15T16:48:24.655Z,45.58
2018-06-15T16:50:54.373Z,45.75
2018-06-15T16:53:23.733Z,46.88
2018-06-15T16:55:53.112Z,44.53
2018-06-15T16:58:22.772Z,45.70
2018-06-15T17:00:52.442Z,46.36
2018-06-15T17:03:22.087Z,47.40
2018-06-15T17:05:51.735Z,43.92
2018-06-15T17:08:21.409Z,45.48
2018-06-15T17:10:51.306Z,45.91
2018-06-15T17:13:21.274Z,46.29
2018-06-15T17:15:50.586Z,47.30
2018-06-15T17:18:20.100Z,44.38
2018-06-15T17:20:50.427Z,44.48
2018-06-15T17:23:20.494Z,45.20
2018-06-15T17:25:50.192Z,46.10
2018-06-15T17:28:19.945Z,43.87
2018-06-15T17:30:49.618Z,44.45
2018-06-15T17:33:19.333Z,47.11
2018-06-15T17:35:49.012Z,45.88
2018-06-15T17:38:18.682Z,46.89
2018-06-15T17:40:48.415Z,47.80
2018-06-15T17:43:18.148Z,46.22
2018-06-15T17:45:47.802Z,45.96
2018-06-15T17:48:17.550Z,46.53
2018-06-15T17:50:47.435Z,48.49
2018-06-15T17:53:17.160Z,47.85
2018-06-15T17:55:46.886Z,47.40
2018-06-15T17:58:16.181Z,46.99
2018-06-15T18:00:45.931Z,47.62
2018-06-15T18:03:15.232Z,46.97
2018-06-15T18:05:44.546Z,50.46
2018-06-15T18:08:13.853Z,47.64
2018-06-15T18:10:43.642Z,49.25
2018-06-15T18:13:13.329Z,48.44
2018-06-15T18:15:42.977Z,49.37
2018-06-15T18:18:12.281Z,50.03
2018-06-15T18:20:42.104Z,49.63
2018-06-15T18:23:12.171Z,51.56
2018-06-15T18:25:41.874Z,50.60
2018-06-15T18:28:11.554Z,50.98
2018-06-15T18:30:40.892Z,51.62
2018-06-15T18:33:10.618Z,50.05
2018-06-15T18:35:40.298Z,51.04
2018-06-15T18:38:09.647Z,52.69
2018-06-15T18:40:39.471Z,52.04
2018-06-15T18:43:09.225Z,53.97
2018-06-15T18:45:38.572Z,54.90
2018-06-15T18:48:08.353Z,54.38
2018-06-15T18:50:38.197Z,54.34
2018-06-15T18:53:07.922Z,54.18
2018-06-15T18:55:37.707Z,54.00
2018-06-15T18:58:07.061Z,54.25
2018-06-15T19:00:36.754Z,55.65
2018-06-15T19:03:06.866Z,54.11
2018-06-15T19:05:36.557Z,54.83
2018-06-15T19:08:06.384Z,53.66
2018-06-15T19:10:36.103Z,54.79
2018-06-15T19:13:06.433Z,55.18
2018-06-15T19:15:36.145Z,53.05
2018-06-15T19:18:06.106Z,53.20
2018-06-15T19:20:35.802Z,55.05
2018-06-15T19:23:05.565Z,53.74
2018-06-15T19:25:35.432Z,53.99
2018-06-15T19:28:05.126Z,57.61
2018-06-15T19:30:34.791Z,55.27
2018-06-15T19:33:04.519Z,53.19
2018-06-15T19:35:34.189Z,55.54
2018-06-15T19:38:03.948Z,54.76
2018-06-15T19:40:33.293Z,58.08
2018-06-15T19:43:03.262Z,55.00
2018-06-15T19:45:33.128Z,56.85
2018-06-15T19:48:02.791Z,57.77
2018-06-15T19:50:32.518Z,57.42
2018-06-15T19:53:02.196Z,57.47
2018-06-15T19:55:32.059Z,57.33
2018-06-15T19:58:01.726Z,58.79
2018-06-15T20:00:31.414Z,59.57
2018-06-15T20:03:01.111Z,60.22
2018-06-15T20:05:30.826Z,60.00
2018-06-15T20:08:00.497Z,59.17
2018-06-15T20:10:30.187Z,60.39
2018-06-15T20:12:59.854Z,61.29
2018-06-15T20:15:29.566Z,61.05
2018-06-15T20:17:59.327Z,61.70
2018-06-15T20:20:29.142Z,62.36
2018-06-15T20:22:59.942Z,61.76
2018-06-15T20:26:32.844Z,62.63
2018-06-15T20:29:02.498Z,63.67
2018-06-15T20:31:32.185Z,64.31
2018-06-15T20:34:01.860Z,65.82
2018-06-15T20:36:31.531Z,66.04
2018-06-15T20:39:01.314Z,67.27
2018-06-15T20:41:31.123Z,68.18
2018-06-15T20:44:00.798Z,68.63
2018-06-15T20:46:30.490Z,68.93
2018-06-15T20:49:00.199Z,69.44
2018-06-15T20:51:29.881Z,69.56
2018-06-15T20:53:59.740Z,69.58
2018-06-15T20:56:29.396Z,69.94
2018-06-15T20:58:59.081Z,70.40
2018-06-15T21:01:28.854Z,70.71
2018-06-15T21:03:58.598Z,69.34
2018-06-15T21:06:28.268Z,69.15
2018-06-15T21:08:57.980Z,68.74
2018-06-15T21:11:27.703Z,67.69
2018-06-15T21:13:57.493Z,67.59
2018-06-15T21:16:27.195Z,68.07
2018-06-15T21:18:57.044Z,68.63
2018-06-15T21:21:26.619Z,69.61
2018-06-15T21:23:56.353Z,69.22
2018-06-15T21:26:26.145Z,69.12
2018-06-15T21:28:55.895Z,69.82
2018-06-15T21:31:25.605Z,71.56
2018-06-15T21:33:55.356Z,71.26
2018-06-15T21:36:25.137Z,72.15
2018-06-15T21:38:54.834Z,70.66
2018-06-15T21:41:24.498Z,72.75
2018-06-15T21:43:54.271Z,72.31
2018-06-15T21:46:23.987Z,73.00
2018-06-15T21:48:53.650Z,74.22
2018-06-15T21:51:23.405Z,74.40
2018-06-15T21:53:53.122Z,76.06
2018-06-15T21:56:22.811Z,75.33
2018-06-15T21:58:52.641Z,76.12
2018-06-15T22:01:27.932Z,76.71
2018-06-15T22:03:58.124Z,76.59
2018-06-15T22:06:27.965Z,76.05
2018-06-15T22:08:57.486Z,75.66
2018-06-15T22:11:27.163Z,75.51
2018-06-15T22:13:56.830Z,75.58
2018-06-15T22:16:28.656Z,75.37
2018-06-15T22:18:58.006Z,75.44
2018-06-15T22:21:27.788Z,76.72
2018-06-15T22:23:57.585Z,77.90
2018-06-15T22:26:27.373Z,77.49
2018-06-15T22:28:57.120Z,78.66
2018-06-15T22:31:26.890Z,78.62
2018-06-15T22:33:56.620Z,78.73
2018-06-15T22:36:26.297Z,78.74
2018-06-15T22:38:55.986Z,78.92
2018-06-15T22:41:25.629Z,78.66
2018-06-15T22:46:17.357Z,78.41
2018-06-15T22:48:47.147Z,78.14
2018-06-15T22:51:16.865Z,78.62
2018-06-15T22:53:46.554Z,78.06
2018-06-15T22:56:16.234Z,78.36
2018-06-15T22:58:45.973Z,78.16
2018-06-15T23:01:15.641Z,77.79
2018-06-15T23:03:45.299Z,78.12
2018-06-15T23:06:15.112Z,79.03
2018-06-15T23:08:44.750Z,78.97
2018-06-15T23:11:14.125Z,79.39
2018-06-15T23:13:43.828Z,79.17
2018-06-15T23:16:13.454Z,79.50
2018-06-15T23:18:43.180Z,79.57
2018-06-15T23:21:12.937Z,80.27
2018-06-15T23:23:42.591Z,82.04
2018-06-15T23:26:12.277Z,81.84
2018-06-15T23:28:41.943Z,82.23
2018-06-15T23:31:11.649Z,83.17
2018-06-15T23:33:41.145Z,83.69
2018-06-15T23:36:10.741Z,84.03
2018-06-15T23:38:40.364Z,84.49
2018-06-15T23:41:10.137Z,83.87
2018-06-15T23:43:39.895Z,85.28
2018-06-15T23:46:09.611Z,85.23
2018-06-15T23:48:39.291Z,84.69
2018-06-15T23:51:08.911Z,84.15
2018-06-15T23:53:38.627Z,84.75
2018-06-15T23:56:08.470Z,85.05
2018-06-15T23:58:38.096Z,84.98
